LGHI/JKH METAR and TAF weather

Enter ICAO airport designator
Station Type Date Time Source
LGHI METAR 2021/09/20 03:50 UTC NOAA

LGHI 200350Z VRB02KT CAVOK 23/22 Q1012


Station Type Date Time Source
LGHI Decoded METAR 2021/09/20 03:50 UTC NOAA

Chios Airport , Greece (LGHI) 38-20N 026-08E 4M
Sep 19, 2021 - 11:50 PM EDT / 2021.09.20 0350 UTC
Wind: Variable at 2 MPH (2 KT):0
Visibility: greater than 7 mile(s):0
Temperature: 73 F (23 C)
Dew Point: 71 F (22 C)
Relative Humidity: 94%
Pressure (altimeter): 29.88 in. Hg (1012 hPa)
ob: LGHI 200350Z VRB02KT CAVOK 23/22 Q1012
cycle: 4

Station Type Date Time Source
LGHI TAF 2012/09/21 03:06 UTC NOAA

TAF TAF LGHI 210200Z 2103/2115 VRB05KT 9999 SCT020 PROB30
TEMPO 2103/2106 7000 RA SCT018 BKN030
BECMG 2103/2105 30018KT

Example: see airport list